createdAt,value
2023-01-03T00:00:00.941Z,9.20
2023-01-03T00:10:09.907Z,10.20
2023-01-03T00:20:15.933Z,9.50
2023-01-03T00:30:21.616Z,8.40
2023-01-03T00:40:27.375Z,9.50
2023-01-03T00:50:33.001Z,8.50
2023-01-03T01:00:38.886Z,8.50
2023-01-03T01:11:01.858Z,7.60
2023-01-03T01:21:10.231Z,6.80
2023-01-03T01:31:17.881Z,5.90
2023-01-03T01:41:37.949Z,6.90
2023-01-03T01:51:44.219Z,8.70
2023-01-03T02:01:52.669Z,6.30
2023-01-03T02:12:17.034Z,5.80
2023-01-03T02:22:52.253Z,5.10
2023-01-03T02:33:06.584Z,4.70
2023-01-03T02:43:17.972Z,4.90
2023-01-03T02:53:29.138Z,5.00
2023-01-03T03:03:40.362Z,4.90
2023-01-03T03:13:52.195Z,4.50
2023-01-03T03:24:35.793Z,6.20
2023-01-03T03:34:43.770Z,5.40
2023-01-03T03:45:04.153Z,5.70
2023-01-03T03:55:16.377Z,5.10
2023-01-03T04:05:25.296Z,6.40
2023-01-03T04:15:31.217Z,7.10
2023-01-03T04:25:37.005Z,7.10
2023-01-03T04:35:42.762Z,5.90
2023-01-03T04:45:50.821Z,5.90
2023-01-03T04:55:57.819Z,6.00
2023-01-03T05:06:06.147Z,6.10
2023-01-03T05:16:14.556Z,5.70
2023-01-03T05:26:22.859Z,5.90
2023-01-03T05:36:28.655Z,6.80
2023-01-03T05:46:34.782Z,6.70
2023-01-03T05:56:40.601Z,6.30
2023-01-03T06:06:46.428Z,7.80
2023-01-03T06:17:15.106Z,8.00
2023-01-03T06:27:21.076Z,6.70
2023-01-03T06:37:26.799Z,7.10
2023-01-03T06:47:50.275Z,6.30
2023-01-03T06:57:55.935Z,6.00
2023-01-03T07:08:01.769Z,5.60
2023-01-03T07:18:07.909Z,4.80
2023-01-03T07:28:15.248Z,4.70
2023-01-03T07:38:21.198Z,4.20
2023-01-03T07:48:27.072Z,3.60
2023-01-03T07:58:33.477Z,4.30
2023-01-03T08:08:39.519Z,4.10
2023-01-03T08:18:46.070Z,3.20
2023-01-03T08:28:52.701Z,3.50
2023-01-03T08:39:03.558Z,3.70
2023-01-03T08:49:10.023Z,3.50
2023-01-03T08:59:15.911Z,3.50
2023-01-03T09:09:21.852Z,3.40
2023-01-03T09:19:27.594Z,4.20
2023-01-03T09:29:33.454Z,3.50
2023-01-03T09:39:40.754Z,3.60
2023-01-03T09:50:18.334Z,4.50
2023-01-03T10:00:42.656Z,4.00
2023-01-03T10:11:02.061Z,4.20
2023-01-03T10:21:14.774Z,3.00
2023-01-03T10:31:44.357Z,3.20
2023-01-03T10:41:52.765Z,2.10
2023-01-03T10:52:02.742Z,1.90
2023-01-03T11:02:23.469Z,2.10
2023-01-03T11:12:36.740Z,1.80
2023-01-03T11:22:47.537Z,2.80
2023-01-03T11:33:08.944Z,2.70
2023-01-03T11:43:31.166Z,2.00
2023-01-03T11:53:40.533Z,3.10
2023-01-03T12:04:02.783Z,2.50
2023-01-03T12:14:16.369Z,1.90
2023-01-03T12:24:33.064Z,1.80
2023-01-03T12:34:46.350Z,2.40
2023-01-03T12:45:01.277Z,2.20
2023-01-03T12:55:19.968Z,1.90
2023-01-03T13:05:30.818Z,1.70
2023-01-03T13:15:37.847Z,2.10
2023-01-03T13:25:44.806Z,2.10
2023-01-03T13:36:02.440Z,2.50
2023-01-03T13:46:22.445Z,3.30
2023-01-03T13:56:31.667Z,3.30
2023-01-03T14:06:58.348Z,3.10
2023-01-03T14:17:05.830Z,4.20
2023-01-03T14:37:26.550Z,3.90
2023-01-03T14:47:38.722Z,3.40
2023-01-03T14:57:45.774Z,4.90
2023-01-03T15:07:51.548Z,3.80
2023-01-03T15:18:00.877Z,3.50
2023-01-03T15:28:25.161Z,4.10
2023-01-03T15:38:35.597Z,3.50
2023-01-03T15:48:43.269Z,4.00
2023-01-03T15:58:50.969Z,4.30
2023-01-03T16:08:56.960Z,3.50
2023-01-03T16:19:04.245Z,4.30
2023-01-03T16:29:10.180Z,5.80
2023-01-03T16:39:18.382Z,9.30
2023-01-03T16:49:24.413Z,14.80
2023-01-03T16:59:30.078Z,11.50
2023-01-03T17:09:38.137Z,32.10
2023-01-03T17:20:03.398Z,12.50
2023-01-03T17:30:14.523Z,11.80
2023-01-03T17:40:29.250Z,13.10
2023-01-03T17:50:39.020Z,19.70
2023-01-03T18:00:44.995Z,20.50
2023-01-03T18:10:53.449Z,14.90
2023-01-03T18:21:00.308Z,12.90
2023-01-03T18:31:07.360Z,12.30
2023-01-03T18:41:18.981Z,34.20
2023-01-03T18:51:28.979Z,21.50
2023-01-03T19:01:36.113Z,24.00
2023-01-03T19:11:42.645Z,46.00
2023-01-03T19:21:49.195Z,31.00
2023-01-03T19:42:20.026Z,22.70
2023-01-03T19:52:25.953Z,18.90
2023-01-03T20:02:40.952Z,24.10
2023-01-03T20:12:48.029Z,25.20
2023-01-03T20:23:05.844Z,22.70
2023-01-03T20:33:12.524Z,23.10
2023-01-03T20:43:19.714Z,30.70
2023-01-03T20:53:26.995Z,33.70
2023-01-03T21:03:32.939Z,40.40
2023-01-03T21:13:39.088Z,46.90
2023-01-03T21:23:44.933Z,32.00
2023-01-03T21:33:51.085Z,38.60
2023-01-03T21:43:58.733Z,57.10
2023-01-03T21:54:04.923Z,55.60
2023-01-03T22:04:17.823Z,51.20
2023-01-03T22:14:23.698Z,49.00
2023-01-03T22:24:29.812Z,44.70
2023-01-03T22:34:35.820Z,49.50
2023-01-03T22:44:41.943Z,60.60
2023-01-03T22:54:47.824Z,52.80
2023-01-03T23:04:53.542Z,48.90
2023-01-03T23:14:59.736Z,39.40
2023-01-03T23:25:06.065Z,35.50
2023-01-03T23:35:12.491Z,35.10
2023-01-03T23:45:18.596Z,38.30
2023-01-03T23:55:24.443Z,35.90
